createdAt,value
2022-08-08T00:00:02.783Z,17.4
2022-08-08T00:01:39.126Z,17.4
2022-08-08T00:03:15.449Z,17.3
2022-08-08T00:04:51.782Z,17.3
2022-08-08T00:06:28.104Z,17.3
2022-08-08T00:08:04.444Z,17.3
2022-08-08T00:09:40.770Z,17.3
2022-08-08T00:11:17.102Z,17.3
2022-08-08T00:12:53.433Z,17.3
2022-08-08T00:14:29.759Z,17.3
2022-08-08T00:16:06.096Z,17.2
2022-08-08T00:17:42.416Z,17.3
2022-08-08T00:19:17.775Z,17.2
2022-08-08T00:20:54.101Z,17.2
2022-08-08T00:22:30.434Z,17.2
2022-08-08T00:24:06.768Z,17.2
2022-08-08T00:25:43.090Z,17.2
2022-08-08T00:27:19.422Z,17.2
2022-08-08T00:28:55.751Z,17.2
2022-08-08T00:30:32.080Z,17.2
2022-08-08T00:32:08.407Z,17.1
2022-08-08T00:33:44.747Z,17.1
2022-08-08T00:35:21.086Z,17.1
2022-08-08T00:36:57.411Z,17.1
2022-08-08T00:38:33.740Z,17.1
2022-08-08T00:40:09.079Z,17
2022-08-08T00:41:45.426Z,17
2022-08-08T00:43:21.745Z,16.9
2022-08-08T00:44:58.078Z,16.9
2022-08-08T00:46:34.406Z,16.8
2022-08-08T00:48:10.740Z,16.8
2022-08-08T00:49:47.076Z,16.8
2022-08-08T00:51:23.401Z,16.8
2022-08-08T00:52:59.732Z,16.8
2022-08-08T00:54:36.073Z,16.7
2022-08-08T00:56:12.398Z,16.7
2022-08-08T00:57:48.727Z,16.7
2022-08-08T00:59:25.054Z,16.7
2022-08-08T01:01:00.402Z,16.6
2022-08-08T01:02:36.730Z,16.6
2022-08-08T01:04:13.059Z,16.5
2022-08-08T01:05:49.390Z,16.5
2022-08-08T01:07:25.727Z,16.4
2022-08-08T01:09:02.093Z,16.4
2022-08-08T01:10:38.383Z,16.4
2022-08-08T01:12:14.713Z,16.4
2022-08-08T01:13:51.046Z,16.4
2022-08-08T01:15:27.380Z,16.4
2022-08-08T01:17:03.715Z,16.4
2022-08-08T01:18:40.046Z,16.3
2022-08-08T01:20:16.367Z,16.3
2022-08-08T01:21:52.706Z,16.3
2022-08-08T01:23:28.064Z,16.3
2022-08-08T01:25:04.383Z,16.2
2022-08-08T01:26:40.714Z,16.2
2022-08-08T01:28:17.043Z,16.2
2022-08-08T01:29:53.380Z,16.2
2022-08-08T01:31:29.727Z,16.2
2022-08-08T01:33:06.040Z,16.2
2022-08-08T01:34:42.371Z,16.1
2022-08-08T01:36:18.704Z,16.1
2022-08-08T01:37:55.045Z,16.1
2022-08-08T01:39:31.363Z,16.1
2022-08-08T01:41:07.694Z,16.1
2022-08-08T01:42:44.023Z,16
2022-08-08T01:44:19.385Z,16
2022-08-08T01:45:55.708Z,16
2022-08-08T01:47:32.050Z,15.9
2022-08-08T01:49:08.356Z,15.9
2022-08-08T01:50:44.690Z,15.9
2022-08-08T01:52:21.032Z,15.9
2022-08-08T01:53:57.355Z,15.9
2022-08-08T01:55:33.681Z,15.9
2022-08-08T01:57:10.021Z,15.9
2022-08-08T01:58:46.353Z,15.8
2022-08-08T02:00:22.682Z,15.8
2022-08-08T02:01:59.009Z,15.8
2022-08-08T02:03:35.340Z,15.8
2022-08-08T02:05:10.689Z,15.8
2022-08-08T02:06:47.018Z,15.8
2022-08-08T02:08:23.354Z,15.8
2022-08-08T02:09:59.685Z,15.8
2022-08-08T02:11:36.009Z,15.7
2022-08-08T02:13:12.345Z,15.7
2022-08-08T02:14:48.678Z,15.7
2022-08-08T02:16:25.008Z,15.7
2022-08-08T02:18:01.337Z,15.7
2022-08-08T02:19:37.661Z,15.7
2022-08-08T02:21:13.995Z,15.7
2022-08-08T02:22:50.325Z,15.6
2022-08-08T02:24:26.655Z,15.6
2022-08-08T02:26:02.006Z,15.6
2022-08-08T02:27:38.331Z,15.5
2022-08-08T02:29:14.680Z,15.5
2022-08-08T02:30:51.000Z,15.5
2022-08-08T02:32:27.335Z,15.5
2022-08-08T02:34:03.656Z,15.4
2022-08-08T02:35:39.998Z,15.4
2022-08-08T02:38:52.651Z,15.4
2022-08-08T02:40:28.985Z,15.4
2022-08-08T02:42:05.314Z,15.3
2022-08-08T02:43:41.642Z,15.3
2022-08-08T02:45:17.980Z,15.3
2022-08-08T02:46:53.326Z,15.2
2022-08-08T02:48:29.667Z,15.2
2022-08-08T02:50:05.990Z,15.2
2022-08-08T02:51:42.316Z,15.2
2022-08-08T02:53:18.644Z,15.2
2022-08-08T02:54:54.970Z,15.2
2022-08-08T02:56:31.312Z,15.2
2022-08-08T02:58:07.643Z,15.2
2022-08-08T02:59:43.971Z,15.2
2022-08-08T03:01:20.297Z,15.2
2022-08-08T03:02:56.627Z,15.1
2022-08-08T03:04:32.968Z,15.1
2022-08-08T03:06:09.299Z,15.1
2022-08-08T03:07:45.625Z,15
2022-08-08T03:09:20.982Z,15
2022-08-08T03:10:57.304Z,15
2022-08-08T03:12:33.629Z,15
2022-08-08T03:14:09.961Z,14.9
2022-08-08T03:15:46.303Z,14.9
2022-08-08T03:17:22.632Z,14.8
2022-08-08T03:18:58.952Z,14.8
2022-08-08T03:20:35.282Z,14.8
2022-08-08T03:22:11.612Z,14.8
2022-08-08T03:23:47.954Z,14.7
2022-08-08T03:25:24.277Z,14.7
2022-08-08T03:27:00.613Z,14.7
2022-08-08T03:28:36.940Z,14.7
2022-08-08T03:30:12.289Z,14.7
2022-08-08T03:31:48.618Z,14.7
2022-08-08T03:33:24.947Z,14.7
2022-08-08T03:35:01.275Z,14.7
2022-08-08T03:36:37.612Z,14.7
2022-08-08T03:38:13.942Z,14.7
2022-08-08T03:39:50.270Z,14.7
2022-08-08T03:41:26.603Z,14.7
2022-08-08T03:43:02.930Z,14.6
2022-08-08T03:44:39.259Z,14.6
2022-08-08T03:46:15.598Z,14.5
2022-08-08T03:47:51.930Z,14.5
2022-08-08T03:49:28.260Z,14.5
2022-08-08T03:51:03.604Z,14.5
2022-08-08T03:52:39.933Z,14.4
2022-08-08T03:54:16.261Z,14.4
2022-08-08T03:55:52.591Z,14.4
2022-08-08T03:57:28.939Z,14.4
2022-08-08T03:59:05.252Z,14.4
2022-08-08T04:00:41.588Z,14.4
2022-08-08T04:02:17.914Z,14.3
2022-08-08T04:03:54.251Z,14.3
2022-08-08T04:05:30.582Z,14.3
2022-08-08T04:07:06.910Z,14.3
2022-08-08T04:08:43.242Z,14.4
2022-08-08T04:10:19.565Z,14.3
2022-08-08T04:11:54.918Z,14.3
2022-08-08T04:13:31.247Z,14.3
2022-08-08T04:15:07.577Z,14.3
2022-08-08T04:16:43.913Z,14.3
2022-08-08T04:18:20.243Z,14.3
2022-08-08T04:19:56.571Z,14.3
2022-08-08T04:21:32.914Z,14.2
2022-08-08T04:23:09.228Z,14.2
2022-08-08T04:24:45.567Z,14.2
2022-08-08T04:26:21.892Z,14.1
2022-08-08T04:27:58.226Z,14.1
2022-08-08T04:29:34.561Z,14.1
2022-08-08T04:31:10.884Z,14.1
2022-08-08T04:32:46.238Z,14
2022-08-08T04:34:22.558Z,14
2022-08-08T04:35:58.917Z,14
2022-08-08T04:37:35.226Z,14.1
2022-08-08T04:39:11.564Z,14.1
2022-08-08T04:40:47.892Z,14.1
2022-08-08T04:42:24.222Z,14.1
2022-08-08T04:44:00.572Z,14.1
2022-08-08T04:45:36.878Z,14.1
2022-08-08T04:47:13.214Z,14.1
2022-08-08T04:48:49.545Z,14
2022-08-08T04:50:25.874Z,14
2022-08-08T04:52:02.216Z,14
2022-08-08T04:53:38.538Z,14
2022-08-08T04:55:13.889Z,14
2022-08-08T04:56:50.228Z,13.9
2022-08-08T04:58:26.550Z,13.9
2022-08-08T05:00:02.880Z,13.9
2022-08-08T05:01:39.233Z,13.9
2022-08-08T05:03:15.544Z,13.9
2022-08-08T05:04:51.869Z,13.8
2022-08-08T05:06:28.205Z,13.8
2022-08-08T05:08:04.537Z,13.7
2022-08-08T05:09:40.856Z,13.6
2022-08-08T05:11:17.195Z,13.6
2022-08-08T05:12:53.520Z,13.6
2022-08-08T05:14:29.856Z,13.6
2022-08-08T05:16:05.199Z,13.5
2022-08-08T05:17:41.532Z,13.5
2022-08-08T05:19:17.875Z,13.5
2022-08-08T05:20:54.201Z,13.5
2022-08-08T05:22:30.534Z,13.5
2022-08-08T05:24:06.860Z,13.6
2022-08-08T05:25:43.193Z,13.6
2022-08-08T05:27:19.516Z,13.7
2022-08-08T05:28:55.845Z,13.7
2022-08-08T05:30:32.191Z,13.7
2022-08-08T05:32:08.510Z,13.7
2022-08-08T05:33:44.840Z,13.8
2022-08-08T05:35:21.171Z,13.7
2022-08-08T05:36:56.523Z,13.8
2022-08-08T05:38:32.854Z,13.8
2022-08-08T05:40:09.182Z,13.9
2022-08-08T05:41:45.518Z,13.9
2022-08-08T05:43:21.845Z,14
2022-08-08T05:44:58.177Z,14
2022-08-08T05:46:34.502Z,14
2022-08-08T05:48:10.832Z,14
2022-08-08T05:49:47.161Z,14.1
2022-08-08T05:51:23.488Z,14.1
2022-08-08T05:52:59.833Z,14.2
2022-08-08T05:54:36.156Z,14.2
2022-08-08T05:56:11.525Z,14.2
2022-08-08T05:57:46.864Z,14.3
2022-08-08T05:59:22.221Z,14.5
2022-08-08T06:00:58.549Z,14.7
2022-08-08T06:02:33.943Z,14.8
2022-08-08T06:04:10.240Z,14.9
2022-08-08T06:05:46.559Z,15
2022-08-08T06:07:22.901Z,15.1
2022-08-08T06:08:59.229Z,15.2
2022-08-08T06:10:35.550Z,15.3
2022-08-08T06:12:11.890Z,15.4
2022-08-08T06:13:48.214Z,15.7
2022-08-08T06:15:24.548Z,15.8
2022-08-08T06:17:00.879Z,15.9
2022-08-08T06:18:37.211Z,16
2022-08-08T06:20:13.534Z,16.1
2022-08-08T06:21:49.876Z,16.2
2022-08-08T06:23:25.224Z,16.3
2022-08-08T06:25:01.555Z,16.2
2022-08-08T06:26:37.881Z,16.2
2022-08-08T06:28:14.216Z,16.2
2022-08-08T06:29:50.552Z,16.2
2022-08-08T06:31:26.870Z,16.2
2022-08-08T06:33:03.206Z,16.3
2022-08-08T06:34:39.536Z,16.2
2022-08-08T06:36:15.901Z,16.1
2022-08-08T06:37:52.197Z,16.2
2022-08-08T06:39:28.521Z,16.4
2022-08-08T06:41:04.859Z,16.5
2022-08-08T06:42:41.201Z,16.6
2022-08-08T06:44:16.532Z,16.4
2022-08-08T06:45:51.882Z,16.4
2022-08-08T06:47:28.221Z,16.5
2022-08-08T06:49:04.557Z,16.7
2022-08-08T06:50:40.874Z,16.7
2022-08-08T06:52:17.210Z,16.9
2022-08-08T06:53:53.537Z,17.1
2022-08-08T06:55:29.871Z,17.1
2022-08-08T06:57:06.198Z,17
2022-08-08T06:58:42.552Z,17
2022-08-08T07:00:18.862Z,17
2022-08-08T07:01:55.204Z,17.1
2022-08-08T07:03:31.532Z,17.3
2022-08-08T07:05:07.861Z,17.5
2022-08-08T07:06:43.214Z,17.5
2022-08-08T07:08:19.535Z,17.5
2022-08-08T07:09:55.883Z,17.6
2022-08-08T07:11:32.207Z,17.7
2022-08-08T07:13:08.523Z,17.8
2022-08-08T07:14:44.857Z,18
2022-08-08T07:16:21.191Z,18
2022-08-08T07:17:57.513Z,18
2022-08-08T07:19:33.854Z,18
2022-08-08T07:21:10.184Z,18
2022-08-08T07:22:46.552Z,18
2022-08-08T07:24:22.837Z,18.1
2022-08-08T07:25:59.174Z,18.2
2022-08-08T07:27:34.521Z,18.3
2022-08-08T07:29:10.850Z,18.4
2022-08-08T07:30:47.185Z,18.4
2022-08-08T07:32:23.531Z,18.6
2022-08-08T07:33:59.846Z,18.7
2022-08-08T07:35:36.179Z,18.7
2022-08-08T07:37:12.537Z,18.7
2022-08-08T07:38:48.845Z,18.8
2022-08-08T07:40:25.160Z,18.9
2022-08-08T07:42:01.495Z,19
2022-08-08T07:43:37.830Z,19.2
2022-08-08T07:45:14.159Z,19.3
2022-08-08T07:46:50.490Z,19.5
2022-08-08T07:48:25.832Z,19.6
2022-08-08T07:50:02.168Z,19.7
2022-08-08T07:51:38.494Z,19.7
2022-08-08T07:53:14.831Z,19.7
2022-08-08T07:54:51.156Z,19.8
2022-08-08T07:56:27.482Z,19.8
2022-08-08T07:58:03.825Z,19.7
2022-08-08T07:59:40.143Z,19.8
2022-08-08T08:01:16.485Z,19.9
2022-08-08T08:02:52.813Z,20.1
2022-08-08T08:04:29.147Z,20.3
2022-08-08T08:06:05.468Z,20.4
2022-08-08T08:07:41.791Z,20.6
2022-08-08T08:09:17.149Z,20.7
2022-08-08T08:10:53.488Z,20.8
2022-08-08T08:12:29.808Z,20.8
2022-08-08T08:14:06.144Z,21
2022-08-08T08:15:42.494Z,21
2022-08-08T08:17:18.805Z,20.7
2022-08-08T08:18:55.141Z,20.4
2022-08-08T08:20:31.463Z,20.3
2022-08-08T08:22:07.797Z,20.4
2022-08-08T08:23:44.128Z,20.4
2022-08-08T08:25:20.483Z,20.3
2022-08-08T08:26:56.783Z,20.5
2022-08-08T08:28:33.126Z,20.8
2022-08-08T08:30:08.475Z,21
2022-08-08T08:31:44.803Z,21.1
2022-08-08T08:33:21.133Z,21.2
2022-08-08T08:34:57.468Z,21.4
2022-08-08T08:36:33.787Z,21.5
2022-08-08T08:38:10.122Z,21.6
2022-08-08T08:39:46.450Z,21.5
2022-08-08T08:41:22.789Z,21.5
2022-08-08T08:42:59.195Z,21.7
2022-08-08T08:44:35.440Z,22
2022-08-08T08:46:11.782Z,21.8
2022-08-08T08:47:48.122Z,21.5
2022-08-08T08:49:24.448Z,21.4
2022-08-08T08:50:59.788Z,21.5
2022-08-08T08:52:36.120Z,21.5
2022-08-08T08:54:12.442Z,21.5
2022-08-08T08:55:48.792Z,21.5
2022-08-08T08:57:25.105Z,21.4
2022-08-08T08:59:01.440Z,21.4
2022-08-08T09:00:37.770Z,21.3
2022-08-08T09:02:14.263Z,21.2
2022-08-08T09:03:50.426Z,21.3
2022-08-08T09:05:26.756Z,21.6
2022-08-08T09:07:03.083Z,21.8
2022-08-08T09:08:39.419Z,22
2022-08-08T09:10:15.754Z,22
2022-08-08T09:11:51.093Z,21.9
2022-08-08T09:13:27.427Z,21.7
2022-08-08T09:15:03.761Z,21.7
2022-08-08T09:16:40.095Z,21.9
2022-08-08T09:18:16.431Z,22.1
2022-08-08T09:19:52.746Z,22.3
2022-08-08T09:21:29.085Z,22.4
2022-08-08T09:23:05.417Z,22.5
2022-08-08T09:24:41.739Z,22.5
2022-08-08T09:26:18.070Z,22.7
2022-08-08T09:27:54.406Z,22.9
2022-08-08T09:29:30.735Z,23.2
2022-08-08T09:31:07.068Z,23.3
2022-08-08T09:32:43.394Z,23
2022-08-08T09:34:18.753Z,23.1
2022-08-08T09:35:55.077Z,23.3
2022-08-08T09:37:31.416Z,23.3
2022-08-08T09:39:07.746Z,23
2022-08-08T09:40:44.098Z,22.9
2022-08-08T09:42:20.413Z,23.1
2022-08-08T09:43:56.735Z,23.4
2022-08-08T09:45:33.076Z,23.4
2022-08-08T09:47:09.398Z,23.3
2022-08-08T09:48:45.944Z,23.1
2022-08-08T09:50:22.063Z,23
2022-08-08T09:51:58.389Z,22.8
2022-08-08T09:53:34.746Z,22.6
2022-08-08T09:55:10.063Z,22.6
2022-08-08T09:56:46.436Z,22.6
2022-08-08T09:58:22.729Z,22.7
2022-08-08T09:59:59.061Z,23
2022-08-08T10:01:35.393Z,23.2
2022-08-08T10:03:11.718Z,23.5
2022-08-08T10:04:48.064Z,23.3
2022-08-08T10:06:24.383Z,23.1
2022-08-08T10:08:00.715Z,23.3
2022-08-08T10:09:37.057Z,23.5
2022-08-08T10:11:13.389Z,23.7
2022-08-08T10:12:49.697Z,23.5
2022-08-08T10:14:26.041Z,23.2
2022-08-08T10:17:37.716Z,23.3
2022-08-08T10:19:14.055Z,23.3
2022-08-08T10:20:50.376Z,23.1
2022-08-08T10:22:26.717Z,23.2
2022-08-08T10:24:03.039Z,23.5
2022-08-08T10:25:39.365Z,23.7
2022-08-08T10:27:15.723Z,23.9
2022-08-08T10:28:52.049Z,23.9
2022-08-08T10:30:28.363Z,23.7
2022-08-08T10:32:04.691Z,23.4
2022-08-08T10:33:41.014Z,23.3
2022-08-08T10:36:53.682Z,23.3
2022-08-08T10:38:29.076Z,23.6
2022-08-08T10:40:05.356Z,23.8
2022-08-08T10:41:41.697Z,24.1
2022-08-08T10:43:18.020Z,24
2022-08-08T10:44:54.399Z,24
2022-08-08T10:46:30.713Z,24.1
2022-08-08T10:48:07.014Z,24
2022-08-08T10:49:43.341Z,24.1
2022-08-08T10:51:19.671Z,23.9
2022-08-08T10:52:56.008Z,23.8
2022-08-08T10:54:32.339Z,23.8
2022-08-08T10:56:08.672Z,23.9
2022-08-08T10:57:44.996Z,24
2022-08-08T10:59:21.328Z,23.9
2022-08-08T11:00:56.673Z,23.9
2022-08-08T11:02:32.997Z,23.9
2022-08-08T11:04:09.359Z,24.1
2022-08-08T11:05:45.680Z,24.1
2022-08-08T11:07:22.023Z,24.2
2022-08-08T11:08:58.346Z,24.1
2022-08-08T11:10:34.662Z,24
2022-08-08T11:12:10.990Z,24
2022-08-08T11:13:47.333Z,24.1
2022-08-08T11:15:23.654Z,24.1
2022-08-08T11:16:59.993Z,24.1
2022-08-08T11:18:36.317Z,24.1
2022-08-08T11:20:12.652Z,24.2
2022-08-08T11:21:48.001Z,24.4
2022-08-08T11:23:24.326Z,24.3
2022-08-08T11:25:00.665Z,24.2
2022-08-08T11:26:37.002Z,23.9
2022-08-08T11:28:13.319Z,23.8
2022-08-08T11:29:49.645Z,23.8
2022-08-08T11:31:25.990Z,23.8
2022-08-08T11:33:02.309Z,24
2022-08-08T11:34:38.651Z,24
2022-08-08T11:36:14.968Z,24.1
2022-08-08T11:37:51.321Z,24.2
2022-08-08T11:39:27.668Z,24.3
2022-08-08T11:41:03.959Z,24.3
2022-08-08T11:42:39.306Z,24.2
2022-08-08T11:44:15.647Z,24.2
2022-08-08T11:45:51.968Z,24.3
2022-08-08T11:47:28.300Z,24
2022-08-08T11:49:04.625Z,24.1
2022-08-08T11:50:40.962Z,23.9
2022-08-08T11:52:17.287Z,23.8
2022-08-08T11:53:53.623Z,23.9
2022-08-08T11:55:29.953Z,23.9
2022-08-08T11:57:06.280Z,24
2022-08-08T11:58:42.610Z,24
2022-08-08T12:00:18.954Z,24.1
2022-08-08T12:01:55.273Z,24.2
2022-08-08T12:03:30.621Z,24.3
2022-08-08T12:05:06.961Z,24.2
2022-08-08T12:06:43.298Z,24.2
2022-08-08T12:08:18.643Z,24.1
2022-08-08T12:09:54.967Z,24.1
2022-08-08T12:11:31.299Z,24
2022-08-08T12:13:07.629Z,24
2022-08-08T12:14:43.958Z,23.9
2022-08-08T12:16:20.287Z,23.9
2022-08-08T12:17:56.621Z,23.9
2022-08-08T12:19:32.951Z,24
2022-08-08T12:21:09.280Z,24.1
2022-08-08T12:22:45.608Z,24
2022-08-08T12:24:21.944Z,24
2022-08-08T12:25:58.279Z,24
2022-08-08T12:27:34.613Z,23.9
2022-08-08T12:29:10.931Z,23.9
2022-08-08T12:30:46.307Z,23.9
2022-08-08T12:32:22.611Z,23.9
2022-08-08T12:33:58.941Z,23.9
2022-08-08T12:35:35.309Z,23.9
2022-08-08T12:37:11.603Z,24.1
2022-08-08T12:38:47.933Z,24.2
2022-08-08T12:40:24.255Z,24.1
2022-08-08T12:42:00.588Z,24.2
2022-08-08T12:43:36.920Z,24.1
2022-08-08T12:45:13.256Z,24.2
2022-08-08T12:46:49.588Z,24.2
2022-08-08T12:48:25.919Z,24.2
2022-08-08T12:50:02.239Z,24.2
2022-08-08T12:51:37.594Z,24.3
2022-08-08T12:53:13.919Z,24.4
2022-08-08T12:54:50.249Z,24.5
2022-08-08T12:56:26.596Z,24.6
2022-08-08T12:58:02.915Z,24.5
2022-08-08T12:59:39.252Z,24.4
2022-08-08T13:01:15.581Z,24.3
2022-08-08T13:02:51.912Z,24.3
2022-08-08T13:04:28.240Z,24.5
2022-08-08T13:06:04.571Z,24.6
2022-08-08T13:07:40.898Z,24.6
2022-08-08T13:09:17.234Z,24.6
2022-08-08T13:10:53.568Z,24.5
2022-08-08T13:12:29.898Z,24.4
2022-08-08T13:14:05.243Z,24.3
2022-08-08T13:15:41.564Z,24.3
2022-08-08T13:17:17.904Z,24.4
2022-08-08T13:18:54.246Z,24.5
2022-08-08T13:20:30.564Z,24.4
2022-08-08T13:22:06.891Z,24.2
2022-08-08T13:23:43.223Z,24.3
2022-08-08T13:25:19.559Z,24.4
2022-08-08T13:26:55.894Z,24.4
2022-08-08T13:28:32.220Z,24.2
2022-08-08T13:30:08.546Z,24.1
2022-08-08T13:31:44.875Z,24
2022-08-08T13:33:21.202Z,24.1
2022-08-08T13:34:56.576Z,24.1
2022-08-08T13:36:32.893Z,24.1
2022-08-08T13:38:09.240Z,24.1
2022-08-08T13:39:45.550Z,24.2
2022-08-08T13:41:21.893Z,24.3
2022-08-08T13:42:58.213Z,24.2
2022-08-08T13:44:34.539Z,24.2
2022-08-08T13:46:10.881Z,24.1
2022-08-08T13:47:47.207Z,24
2022-08-08T13:49:23.531Z,23.9
2022-08-08T13:50:59.879Z,23.9
2022-08-08T13:52:36.203Z,24
2022-08-08T13:54:12.542Z,24.1
2022-08-08T13:55:48.861Z,24.2
2022-08-08T13:57:25.185Z,24.3
2022-08-08T13:59:01.518Z,24.2
2022-08-08T14:00:36.857Z,24.1
2022-08-08T14:02:13.192Z,24.1
2022-08-08T14:03:49.521Z,24.2
2022-08-08T14:05:25.879Z,24.3
2022-08-08T14:07:02.226Z,24.4
2022-08-08T14:08:38.507Z,24.4
2022-08-08T14:10:14.846Z,24.3
2022-08-08T14:11:51.178Z,24.2
2022-08-08T14:13:27.519Z,24.3
2022-08-08T14:15:03.843Z,24.3
2022-08-08T14:16:40.179Z,24.2
2022-08-08T14:18:16.499Z,24.1
2022-08-08T14:19:52.826Z,24.1
2022-08-08T14:21:29.173Z,24.1
2022-08-08T14:23:05.492Z,24.1
2022-08-08T14:24:40.864Z,24.1
2022-08-08T14:26:17.182Z,24
2022-08-08T14:27:53.500Z,24.1
2022-08-08T14:29:29.845Z,24.1
2022-08-08T14:31:06.158Z,24.2
2022-08-08T14:32:42.490Z,24.2
2022-08-08T14:34:18.831Z,24.2
2022-08-08T14:35:55.171Z,24.3
2022-08-08T14:37:31.482Z,24.3
2022-08-08T14:39:07.808Z,24.2
2022-08-08T14:40:44.143Z,24.2
2022-08-08T14:42:20.479Z,24.2
2022-08-08T14:43:56.823Z,24.1
2022-08-08T14:45:33.147Z,24.2
2022-08-08T14:47:15.258Z,24.3
2022-08-08T14:48:45.802Z,24.3
2022-08-08T14:50:22.138Z,24.4
2022-08-08T14:51:57.476Z,24.4
2022-08-08T14:53:33.812Z,24.4
2022-08-08T14:55:10.157Z,24.4
2022-08-08T14:56:46.474Z,24.3
2022-08-08T14:58:22.803Z,24.3
2022-08-08T14:59:59.130Z,24.3
2022-08-08T15:01:35.458Z,24.3
2022-08-08T15:03:11.798Z,24.3
2022-08-08T15:04:48.125Z,24.3
2022-08-08T15:06:24.459Z,24.3
2022-08-08T15:08:00.791Z,24.3
2022-08-08T15:09:37.146Z,24.3
2022-08-08T15:11:13.445Z,24.3
2022-08-08T15:12:49.791Z,24.3
2022-08-08T15:14:26.109Z,24.3
2022-08-08T15:16:01.459Z,24.3
2022-08-08T15:17:37.786Z,24.4
2022-08-08T15:19:14.114Z,24.4
2022-08-08T15:20:50.452Z,24.4
2022-08-08T15:22:26.776Z,24.5
2022-08-08T15:24:03.104Z,24.5
2022-08-08T15:25:39.439Z,24.6
2022-08-08T15:27:15.785Z,24.5
2022-08-08T15:28:52.098Z,24.3
2022-08-08T15:30:28.442Z,24.3
2022-08-08T15:32:04.768Z,24.3
2022-08-08T15:33:41.095Z,24.4
2022-08-08T15:35:17.441Z,24.3
2022-08-08T15:36:52.773Z,24.3
2022-08-08T15:38:29.116Z,24.2
2022-08-08T15:40:05.433Z,24.3
2022-08-08T15:41:41.758Z,24.3
2022-08-08T15:43:18.104Z,24.4
2022-08-08T15:44:54.421Z,24.3
2022-08-08T15:46:30.765Z,24.4
2022-08-08T15:48:07.078Z,24.4
2022-08-08T15:49:43.412Z,24.5
2022-08-08T15:51:19.760Z,24.6
2022-08-08T15:52:56.082Z,24.6
2022-08-08T15:54:32.410Z,24.5
2022-08-08T15:56:08.747Z,24.5
2022-08-08T15:57:45.244Z,24.4
2022-08-08T15:59:20.419Z,24.4
2022-08-08T16:00:56.752Z,24.4
2022-08-08T16:02:33.075Z,24.4
2022-08-08T16:04:09.413Z,24.4
2022-08-08T16:05:45.760Z,24.4
2022-08-08T16:07:22.076Z,24.5
2022-08-08T16:08:58.410Z,24.6
2022-08-08T16:10:34.730Z,24.6
2022-08-08T16:12:59.992Z,24.5
2022-08-08T16:13:47.389Z,24.5
2022-08-08T16:15:23.724Z,24.5
2022-08-08T16:17:00.063Z,24.5
2022-08-08T16:18:36.382Z,24.4
2022-08-08T16:20:11.733Z,24.4
2022-08-08T16:21:48.064Z,24.4
2022-08-08T16:23:24.393Z,24.4
2022-08-08T16:25:00.727Z,24.4
2022-08-08T16:26:37.056Z,24.3
2022-08-08T16:28:13.385Z,24.3
2022-08-08T16:29:49.718Z,24.3
2022-08-08T16:31:26.043Z,24.3
2022-08-08T16:33:02.373Z,24.4
2022-08-08T16:34:38.705Z,24.4
2022-08-08T16:36:15.046Z,24.4
2022-08-08T16:37:51.367Z,24.3
2022-08-08T16:39:27.703Z,24.3
2022-08-08T16:41:04.029Z,24.3
2022-08-08T16:42:39.385Z,24.3
2022-08-08T16:44:15.714Z,24.3
2022-08-08T16:45:52.046Z,24.3
2022-08-08T16:47:28.375Z,24.3
2022-08-08T16:49:04.710Z,24.3
2022-08-08T16:50:41.033Z,24.3
2022-08-08T16:52:17.358Z,24.3
2022-08-08T16:54:56.785Z,24.3
2022-08-08T16:55:30.029Z,24.3
2022-08-08T16:57:06.357Z,24.3
2022-08-08T16:58:42.692Z,24.2
2022-08-08T17:00:19.033Z,24.2
2022-08-08T17:01:55.376Z,24.2
2022-08-08T17:03:30.693Z,24.1
2022-08-08T17:05:07.027Z,24.2
2022-08-08T17:06:43.362Z,24.2
2022-08-08T17:08:19.707Z,24.2
2022-08-08T17:09:56.019Z,24.2
2022-08-08T17:11:32.353Z,24.1
2022-08-08T17:13:08.686Z,24.1
2022-08-08T17:14:45.011Z,24.1
2022-08-08T17:16:21.350Z,24.1
2022-08-08T17:17:57.674Z,24.1
2022-08-08T17:19:34.004Z,24.1
2022-08-08T17:21:10.344Z,24.1
2022-08-08T17:22:46.689Z,24.1
2022-08-08T17:24:22.999Z,24.1
2022-08-08T17:25:59.331Z,24
2022-08-08T17:27:35.683Z,24
2022-08-08T17:29:11.030Z,24
2022-08-08T17:30:46.388Z,24
2022-08-08T17:32:22.710Z,24
2022-08-08T17:33:59.025Z,24
2022-08-08T17:35:35.369Z,24
2022-08-08T17:37:11.684Z,24
2022-08-08T17:38:48.009Z,24
2022-08-08T17:40:24.360Z,23.9
2022-08-08T17:42:00.680Z,23.9
2022-08-08T17:43:37.004Z,23.9
2022-08-08T17:45:13.336Z,23.9
2022-08-08T17:46:49.664Z,23.8
2022-08-08T17:48:26.019Z,23.8
2022-08-08T17:50:02.331Z,23.8
2022-08-08T17:51:38.665Z,23.8
2022-08-08T17:53:15.003Z,23.8
2022-08-08T17:54:50.361Z,23.7
2022-08-08T17:56:26.692Z,23.7
2022-08-08T17:58:03.012Z,23.7
2022-08-08T17:59:39.332Z,23.6
2022-08-08T18:01:15.661Z,23.6
2022-08-08T18:02:51.997Z,23.6
2022-08-08T18:04:28.327Z,23.5
2022-08-08T18:06:04.655Z,23.5
2022-08-08T18:07:40.983Z,23.5
2022-08-08T18:09:17.324Z,23.5
2022-08-08T18:10:53.676Z,23.4
2022-08-08T18:12:29.976Z,23.4
2022-08-08T18:14:06.308Z,23.4
2022-08-08T18:15:41.668Z,23.4
2022-08-08T18:17:17.991Z,23.4
2022-08-08T18:18:54.318Z,23.3
2022-08-08T18:20:30.653Z,23.3
2022-08-08T18:22:07.003Z,23.3
2022-08-08T18:23:43.344Z,23.3
2022-08-08T18:25:19.636Z,23.3
2022-08-08T18:26:55.993Z,23.2
2022-08-08T18:28:32.307Z,23.2
2022-08-08T18:30:08.629Z,23.2
2022-08-08T18:31:44.979Z,23.1
2022-08-08T18:33:21.289Z,23.1
2022-08-08T18:34:57.645Z,23.1
2022-08-08T18:36:33.964Z,23.1
2022-08-08T18:38:10.290Z,23.1
2022-08-08T18:39:46.619Z,23.1
2022-08-08T18:41:22.954Z,23
2022-08-08T18:42:58.296Z,23
2022-08-08T18:44:34.631Z,23
2022-08-08T18:46:10.955Z,23
2022-08-08T18:47:47.293Z,23
2022-08-08T18:49:23.626Z,22.9
2022-08-08T18:50:59.955Z,22.9
2022-08-08T18:52:36.336Z,22.8
2022-08-08T18:54:12.610Z,22.8
2022-08-08T18:55:48.959Z,22.8
2022-08-08T18:57:25.273Z,22.7
2022-08-08T18:59:01.629Z,22.7
2022-08-08T19:00:37.937Z,22.7
2022-08-08T19:02:14.268Z,22.7
2022-08-08T19:03:49.617Z,22.6
2022-08-08T19:05:25.943Z,22.6
2022-08-08T19:07:02.273Z,22.6
2022-08-08T19:08:38.618Z,22.6
2022-08-08T19:10:14.936Z,22.6
2022-08-08T19:11:51.282Z,22.5
2022-08-08T19:13:27.627Z,22.5
2022-08-08T19:15:03.935Z,22.4
2022-08-08T19:16:40.292Z,22.4
2022-08-08T19:18:16.582Z,22.4
2022-08-08T19:19:52.918Z,22.3
2022-08-08T19:21:29.242Z,22.3
2022-08-08T19:23:05.588Z,22.3
2022-08-08T19:24:41.914Z,22.3
2022-08-08T19:26:17.944Z,22.2
2022-08-08T19:27:53.598Z,22.2
2022-08-08T19:29:29.915Z,22.1
2022-08-08T19:31:05.279Z,22.1
2022-08-08T19:32:40.617Z,22.1
2022-08-08T19:34:16.954Z,22.1
2022-08-08T19:35:53.289Z,22
2022-08-08T19:37:29.610Z,22
2022-08-08T19:39:05.946Z,22
2022-08-08T19:40:42.273Z,22
2022-08-08T19:42:18.630Z,21.9
2022-08-08T19:43:54.938Z,21.9
2022-08-08T19:45:31.272Z,21.9
2022-08-08T19:47:06.628Z,21.9
2022-08-08T19:48:42.961Z,21.8
2022-08-08T19:50:18.303Z,21.8
2022-08-08T19:51:54.646Z,21.7
2022-08-08T19:53:30.962Z,21.7
2022-08-08T19:55:07.312Z,21.7
2022-08-08T19:56:43.630Z,21.7
2022-08-08T19:58:19.975Z,21.6
2022-08-08T19:59:56.293Z,21.6
2022-08-08T20:01:32.636Z,21.5
2022-08-08T20:03:08.963Z,21.5
2022-08-08T20:04:45.302Z,21.5
2022-08-08T20:06:21.619Z,21.5
2022-08-08T20:07:57.947Z,21.4
2022-08-08T20:09:34.275Z,21.4
2022-08-08T20:11:09.634Z,21.4
2022-08-08T20:12:45.956Z,21.3
2022-08-08T20:14:22.279Z,21.3
2022-08-08T20:15:58.606Z,21.3
2022-08-08T20:17:34.945Z,21.2
2022-08-08T20:19:11.281Z,21.2
2022-08-08T20:20:47.605Z,21.2
2022-08-08T20:22:23.932Z,21.2
2022-08-08T20:24:00.284Z,21.1
2022-08-08T20:25:36.614Z,21.1
2022-08-08T20:27:12.933Z,21.1
2022-08-08T20:28:49.260Z,21.1
2022-08-08T20:30:25.590Z,21
2022-08-08T20:32:00.938Z,21
2022-08-08T20:33:37.276Z,20.9
2022-08-08T20:35:13.604Z,20.9
2022-08-08T20:36:49.957Z,20.9
2022-08-08T20:38:26.270Z,20.8
2022-08-08T20:40:02.599Z,20.8
2022-08-08T20:41:38.917Z,20.8
2022-08-08T20:43:15.249Z,20.7
2022-08-08T20:44:51.603Z,20.7
2022-08-08T20:46:27.930Z,20.7
2022-08-08T20:48:04.253Z,20.7
2022-08-08T20:49:40.583Z,20.7
2022-08-08T20:51:16.920Z,20.6
2022-08-08T20:52:52.267Z,20.6
2022-08-08T20:54:28.584Z,20.6
2022-08-08T20:56:04.933Z,20.5
2022-08-08T20:57:41.258Z,20.5
2022-08-08T20:59:17.577Z,20.5
2022-08-08T21:00:53.908Z,20.4
2022-08-08T21:02:30.270Z,20.4
2022-08-08T21:04:06.564Z,20.4
2022-08-08T21:05:42.894Z,20.4
2022-08-08T21:07:19.236Z,20.3
2022-08-08T21:08:55.562Z,20.3
2022-08-08T21:10:31.893Z,20.3
2022-08-08T21:12:08.219Z,20.3
2022-08-08T21:13:43.597Z,20.3
2022-08-08T21:15:19.894Z,20.2
2022-08-08T21:16:56.228Z,20.2
2022-08-08T21:18:32.568Z,20.1
2022-08-08T21:20:08.896Z,20.1
2022-08-08T21:21:45.222Z,20.1
2022-08-08T21:23:21.560Z,20
2022-08-08T21:24:57.880Z,20
2022-08-08T21:26:34.215Z,20
2022-08-08T21:28:10.552Z,19.9
2022-08-08T21:29:46.881Z,19.9
2022-08-08T21:31:23.211Z,19.9
2022-08-08T21:32:59.539Z,19.9
2022-08-08T21:34:35.865Z,19.8